Aintree, United Kingdom
Current Conditions -  °F | °C
As of 3:50 PM on Tuesday 21 Oct 2014 (Local Time) from EGGP Reporting Station
Rain Showers Rain Showers  
Wind Chill: 54°   Ceiling: Unl
Heat Index: 54°   Visibility: 6mi
Dew Point: 37°   Wind: 36mph
Humidity: 54%   Direction: 290°WNW
Pressure: 29.8"   Gusts: 52mph
Location:  53.48°N, 2.94°W
Report Text: EGGP 211450Z 29031G45KT 9000 VCSH FEW035 SCT042 12/03 Q1009
Loading
Personal Weather Stations






























Interactive Weather Map
Tropical Storm Tracking
New forecast layout! Learn more

10-Day Weather Forecast

Advertisements
Track Severe Weather on mobile